sensor_id;sensor_type;location;lat;lon;timestamp;temperature;humidity
8892;DHT22;4482;54.332;10.118;2023-06-14T00:01:01;14.60;99.90
8892;DHT22;4482;54.332;10.118;2023-06-14T00:03:31;14.50;99.90
8892;DHT22;4482;54.332;10.118;2023-06-14T00:05:58;14.50;99.90
8892;DHT22;4482;54.332;10.118;2023-06-14T00:08:25;14.50;99.90
8892;DHT22;4482;54.332;10.118;2023-06-14T00:10:53;14.50;99.90
8892;DHT22;4482;54.332;10.118;2023-06-14T00:13:19;14.40;99.90
8892;DHT22;4482;54.332;10.118;2023-06-14T00:15:46;14.40;99.90
8892;DHT22;4482;54.332;10.118;2023-06-14T00:18:13;14.40;99.90
8892;DHT22;4482;54.332;10.118;2023-06-14T00:20:40;14.40;99.90
8892;DHT22;4482;54.332;10.118;2023-06-14T00:23:07;14.30;99.90
8892;DHT22;4482;54.332;10.118;2023-06-14T00:25:33;14.30;99.90
8892;DHT22;4482;54.332;10.118;2023-06-14T00:28:01;14.30;99.90
8892;DHT22;4482;54.332;10.118;2023-06-14T00:30:28;14.30;99.90
8892;DHT22;4482;54.332;10.118;2023-06-14T00:32:56;14.30;99.90
8892;DHT22;4482;54.332;10.118;2023-06-14T00:35:22;14.30;99.90
8892;DHT22;4482;54.332;10.118;2023-06-14T00:37:49;14.30;99.90
8892;DHT22;4482;54.332;10.118;2023-06-14T00:40:15;14.30;99.90
8892;DHT22;4482;54.332;10.118;2023-06-14T00:42:42;14.30;99.90
8892;DHT22;4482;54.332;10.118;2023-06-14T00:45:10;14.30;99.90
8892;DHT22;4482;54.332;10.118;2023-06-14T00:47:37;14.30;99.90
8892;DHT22;4482;54.332;10.118;2023-06-14T00:50:06;14.30;99.90
8892;DHT22;4482;54.332;10.118;2023-06-14T00:52:33;14.30;99.90
8892;DHT22;4482;54.332;10.118;2023-06-14T00:55:00;14.30;99.90
8892;DHT22;4482;54.332;10.118;2023-06-14T00:57:26;14.20;99.90
8892;DHT22;4482;54.332;10.118;2023-06-14T00:59:55;14.20;99.90
8892;DHT22;4482;54.332;10.118;2023-06-14T01:02:23;14.20;99.90
8892;DHT22;4482;54.332;10.118;2023-06-14T01:04:50;14.20;99.90
8892;DHT22;4482;54.332;10.118;2023-06-14T01:07:20;14.20;99.90
8892;DHT22;4482;54.332;10.118;2023-06-14T01:09:53;14.20;99.90
8892;DHT22;4482;54.332;10.118;2023-06-14T01:12:27;14.20;99.90
8892;DHT22;4482;54.332;10.118;2023-06-14T01:14:55;14.20;99.90
8892;DHT22;4482;54.332;10.118;2023-06-14T01:17:24;14.20;99.90
8892;DHT22;4482;54.332;10.118;2023-06-14T01:19:52;14.30;99.90
8892;DHT22;4482;54.332;10.118;2023-06-14T01:22:23;14.20;99.90
8892;DHT22;4482;54.332;10.118;2023-06-14T01:24:52;14.20;99.90
8892;DHT22;4482;54.332;10.118;2023-06-14T01:27:20;14.20;99.90
8892;DHT22;4482;54.332;10.118;2023-06-14T01:29:49;14.20;99.90
8892;DHT22;4482;54.332;10.118;2023-06-14T01:32:16;14.20;99.90
8892;DHT22;4482;54.332;10.118;2023-06-14T01:34:43;14.20;99.90
8892;DHT22;4482;54.332;10.118;2023-06-14T01:37:10;14.20;99.90
8892;DHT22;4482;54.332;10.118;2023-06-14T01:39:37;14.20;99.90
8892;DHT22;4482;54.332;10.118;2023-06-14T01:42:05;14.20;99.90
8892;DHT22;4482;54.332;10.118;2023-06-14T01:44:32;14.20;99.90
8892;DHT22;4482;54.332;10.118;2023-06-14T01:47:00;14.20;99.90
8892;DHT22;4482;54.332;10.118;2023-06-14T01:49:27;14.20;99.90
8892;DHT22;4482;54.332;10.118;2023-06-14T01:51:53;14.20;99.90
8892;DHT22;4482;54.332;10.118;2023-06-14T01:54:20;14.10;99.90
8892;DHT22;4482;54.332;10.118;2023-06-14T01:56:47;14.10;99.90
8892;DHT22;4482;54.332;10.118;2023-06-14T01:59:15;14.10;99.90
8892;DHT22;4482;54.332;10.118;2023-06-14T02:01:42;14.10;99.90
8892;DHT22;4482;54.332;10.118;2023-06-14T02:04:09;14.10;99.90
8892;DHT22;4482;54.332;10.118;2023-06-14T02:06:36;14.10;99.90
8892;DHT22;4482;54.332;10.118;2023-06-14T02:09:02;14.20;99.90
8892;DHT22;4482;54.332;10.118;2023-06-14T02:11:29;14.20;99.90
8892;DHT22;4482;54.332;10.118;2023-06-14T02:13:56;14.20;99.90
8892;DHT22;4482;54.332;10.118;2023-06-14T02:16:26;14.20;99.90
8892;DHT22;4482;54.332;10.118;2023-06-14T02:18:54;14.20;99.90
8892;DHT22;4482;54.332;10.118;2023-06-14T02:21:22;14.20;99.90
8892;DHT22;4482;54.332;10.118;2023-06-14T02:23:48;14.20;99.90
8892;DHT22;4482;54.332;10.118;2023-06-14T02:26:15;14.20;99.90
8892;DHT22;4482;54.332;10.118;2023-06-14T02:28:42;14.20;99.90
8892;DHT22;4482;54.332;10.118;2023-06-14T02:31:08;14.20;99.90
8892;DHT22;4482;54.332;10.118;2023-06-14T02:33:37;14.10;99.90
8892;DHT22;4482;54.332;10.118;2023-06-14T02:36:04;14.10;99.90
8892;DHT22;4482;54.332;10.118;2023-06-14T02:38:30;14.20;99.90
8892;DHT22;4482;54.332;10.118;2023-06-14T02:40:57;14.10;99.90
8892;DHT22;4482;54.332;10.118;2023-06-14T02:43:24;14.20;99.90
8892;DHT22;4482;54.332;10.118;2023-06-14T02:45:51;14.10;99.90
8892;DHT22;4482;54.332;10.118;2023-06-14T02:48:17;14.10;99.90
8892;DHT22;4482;54.332;10.118;2023-06-14T02:50:45;14.10;99.90
8892;DHT22;4482;54.332;10.118;2023-06-14T02:53:12;14.10;99.90
8892;DHT22;4482;54.332;10.118;2023-06-14T02:55:39;14.00;99.90
8892;DHT22;4482;54.332;10.118;2023-06-14T02:58:05;14.10;99.90
8892;DHT22;4482;54.332;10.118;2023-06-14T03:00:32;14.10;99.90
8892;DHT22;4482;54.332;10.118;2023-06-14T03:03:00;14.00;99.90
8892;DHT22;4482;54.332;10.118;2023-06-14T03:05:27;14.00;99.90
8892;DHT22;4482;54.332;10.118;2023-06-14T03:07:55;14.00;99.90
8892;DHT22;4482;54.332;10.118;2023-06-14T03:10:22;14.00;99.90
8892;DHT22;4482;54.332;10.118;2023-06-14T03:12:48;14.00;99.90
8892;DHT22;4482;54.332;10.118;2023-06-14T03:15:16;14.00;99.90
8892;DHT22;4482;54.332;10.118;2023-06-14T03:17:44;14.00;99.90
8892;DHT22;4482;54.332;10.118;2023-06-14T03:20:11;14.00;99.90
8892;DHT22;4482;54.332;10.118;2023-06-14T03:22:37;14.00;99.90
8892;DHT22;4482;54.332;10.118;2023-06-14T03:25:06;14.00;99.90
8892;DHT22;4482;54.332;10.118;2023-06-14T03:27:34;14.00;99.90
8892;DHT22;4482;54.332;10.118;2023-06-14T03:30:01;14.10;99.90
8892;DHT22;4482;54.332;10.118;2023-06-14T03:32:28;14.10;99.90
8892;DHT22;4482;54.332;10.118;2023-06-14T03:34:58;14.10;99.90
8892;DHT22;4482;54.332;10.118;2023-06-14T03:37:25;14.10;99.90
8892;DHT22;4482;54.332;10.118;2023-06-14T03:39:51;14.20;99.90
8892;DHT22;4482;54.332;10.118;2023-06-14T03:42:19;14.20;99.90
8892;DHT22;4482;54.332;10.118;2023-06-14T03:44:46;14.30;99.90
8892;DHT22;4482;54.332;10.118;2023-06-14T03:47:12;14.30;99.90
8892;DHT22;4482;54.332;10.118;2023-06-14T03:49:39;14.40;99.90
8892;DHT22;4482;54.332;10.118;2023-06-14T03:52:06;14.40;99.90
8892;DHT22;4482;54.332;10.118;2023-06-14T03:54:33;14.40;99.90
8892;DHT22;4482;54.332;10.118;2023-06-14T03:56:59;14.50;99.90
8892;DHT22;4482;54.332;10.118;2023-06-14T03:59:27;14.60;99.90
8892;DHT22;4482;54.332;10.118;2023-06-14T04:01:54;14.60;99.90
8892;DHT22;4482;54.332;10.118;2023-06-14T04:04:21;14.70;99.90
8892;DHT22;4482;54.332;10.118;2023-06-14T04:06:54;14.70;99.90
8892;DHT22;4482;54.332;10.118;2023-06-14T04:09:20;14.80;99.90
8892;DHT22;4482;54.332;10.118;2023-06-14T04:11:47;14.90;99.90
8892;DHT22;4482;54.332;10.118;2023-06-14T04:14:14;14.90;99.90
8892;DHT22;4482;54.332;10.118;2023-06-14T04:16:41;15.00;99.90
8892;DHT22;4482;54.332;10.118;2023-06-14T04:19:08;15.10;99.90
8892;DHT22;4482;54.332;10.118;2023-06-14T04:21:35;15.10;99.90
8892;DHT22;4482;54.332;10.118;2023-06-14T04:24:02;15.20;99.90
8892;DHT22;4482;54.332;10.118;2023-06-14T04:26:28;15.30;99.90
8892;DHT22;4482;54.332;10.118;2023-06-14T04:28:58;15.30;99.90
8892;DHT22;4482;54.332;10.118;2023-06-14T04:31:27;15.50;99.90
8892;DHT22;4482;54.332;10.118;2023-06-14T04:33:55;15.50;99.90
8892;DHT22;4482;54.332;10.118;2023-06-14T04:36:22;15.60;99.90
8892;DHT22;4482;54.332;10.118;2023-06-14T04:38:49;15.80;99.90
8892;DHT22;4482;54.332;10.118;2023-06-14T04:41:20;15.80;99.90
8892;DHT22;4482;54.332;10.118;2023-06-14T04:43:48;16.00;99.90
8892;DHT22;4482;54.332;10.118;2023-06-14T04:46:14;16.20;99.90
8892;DHT22;4482;54.332;10.118;2023-06-14T04:48:42;16.20;99.90
8892;DHT22;4482;54.332;10.118;2023-06-14T04:51:10;16.40;99.90
8892;DHT22;4482;54.332;10.118;2023-06-14T04:53:38;16.60;99.90
8892;DHT22;4482;54.332;10.118;2023-06-14T04:56:05;16.70;99.90
8892;DHT22;4482;54.332;10.118;2023-06-14T04:58:32;16.90;99.90
8892;DHT22;4482;54.332;10.118;2023-06-14T05:00:59;17.00;99.90
8892;DHT22;4482;54.332;10.118;2023-06-14T05:03:26;17.20;99.90
8892;DHT22;4482;54.332;10.118;2023-06-14T05:05:55;17.30;99.90
8892;DHT22;4482;54.332;10.118;2023-06-14T05:08:23;17.50;99.90
8892;DHT22;4482;54.332;10.118;2023-06-14T05:10:51;17.50;99.90
8892;DHT22;4482;54.332;10.118;2023-06-14T05:13:18;17.60;99.90
8892;DHT22;4482;54.332;10.118;2023-06-14T05:15:44;17.60;99.90
8892;DHT22;4482;54.332;10.118;2023-06-14T05:18:11;17.90;99.90
8892;DHT22;4482;54.332;10.118;2023-06-14T05:20:38;18.10;99.90
8892;DHT22;4482;54.332;10.118;2023-06-14T05:23:07;18.40;99.90
8892;DHT22;4482;54.332;10.118;2023-06-14T05:25:35;18.80;99.90
8892;DHT22;4482;54.332;10.118;2023-06-14T05:28:02;19.20;99.90
8892;DHT22;4482;54.332;10.118;2023-06-14T05:30:29;19.60;99.90
8892;DHT22;4482;54.332;10.118;2023-06-14T05:32:58;19.80;99.90
8892;DHT22;4482;54.332;10.118;2023-06-14T05:35:25;20.20;99.90
8892;DHT22;4482;54.332;10.118;2023-06-14T05:37:52;20.20;99.90
8892;DHT22;4482;54.332;10.118;2023-06-14T05:40:20;20.00;99.90
8892;DHT22;4482;54.332;10.118;2023-06-14T05:42:48;20.10;99.90
8892;DHT22;4482;54.332;10.118;2023-06-14T05:45:14;20.60;99.90
8892;DHT22;4482;54.332;10.118;2023-06-14T05:47:41;20.50;99.90
8892;DHT22;4482;54.332;10.118;2023-06-14T05:50:08;20.50;99.90
8892;DHT22;4482;54.332;10.118;2023-06-14T05:52:35;20.70;99.90
8892;DHT22;4482;54.332;10.118;2023-06-14T05:55:02;20.90;99.90
8892;DHT22;4482;54.332;10.118;2023-06-14T05:57:29;20.70;99.90
8892;DHT22;4482;54.332;10.118;2023-06-14T05:59:57;21.00;99.90
8892;DHT22;4482;54.332;10.118;2023-06-14T06:02:24;21.30;99.90
8892;DHT22;4482;54.332;10.118;2023-06-14T06:04:50;21.30;99.90
8892;DHT22;4482;54.332;10.118;2023-06-14T06:07:17;21.10;99.90
8892;DHT22;4482;54.332;10.118;2023-06-14T06:09:43;21.00;99.90
8892;DHT22;4482;54.332;10.118;2023-06-14T06:12:10;21.00;99.90
8892;DHT22;4482;54.332;10.118;2023-06-14T06:14:37;21.20;99.90
8892;DHT22;4482;54.332;10.118;2023-06-14T06:17:05;21.20;99.90
8892;DHT22;4482;54.332;10.118;2023-06-14T06:19:32;21.50;99.90
8892;DHT22;4482;54.332;10.118;2023-06-14T06:21:58;21.70;99.90
8892;DHT22;4482;54.332;10.118;2023-06-14T06:24:25;21.70;99.90
8892;DHT22;4482;54.332;10.118;2023-06-14T06:26:51;21.50;99.90
8892;DHT22;4482;54.332;10.118;2023-06-14T06:29:24;21.30;99.90
8892;DHT22;4482;54.332;10.118;2023-06-14T06:31:54;21.40;99.90
8892;DHT22;4482;54.332;10.118;2023-06-14T06:34:25;21.40;99.90
8892;DHT22;4482;54.332;10.118;2023-06-14T06:36:51;21.60;99.90
8892;DHT22;4482;54.332;10.118;2023-06-14T06:39:18;21.80;99.90
8892;DHT22;4482;54.332;10.118;2023-06-14T06:41:45;21.90;99.90
8892;DHT22;4482;54.332;10.118;2023-06-14T06:44:11;21.90;99.90
8892;DHT22;4482;54.332;10.118;2023-06-14T06:46:38;22.00;99.90
8892;DHT22;4482;54.332;10.118;2023-06-14T06:49:06;22.40;99.90
8892;DHT22;4482;54.332;10.118;2023-06-14T06:51:34;22.70;99.90
8892;DHT22;4482;54.332;10.118;2023-06-14T06:54:01;22.60;99.90
8892;DHT22;4482;54.332;10.118;2023-06-14T06:56:28;22.70;99.90
8892;DHT22;4482;54.332;10.118;2023-06-14T06:58:55;23.00;99.90
8892;DHT22;4482;54.332;10.118;2023-06-14T07:01:21;23.30;99.90
8892;DHT22;4482;54.332;10.118;2023-06-14T07:03:49;23.30;99.90
8892;DHT22;4482;54.332;10.118;2023-06-14T07:06:16;23.40;99.90
8892;DHT22;4482;54.332;10.118;2023-06-14T07:08:45;23.60;99.90
8892;DHT22;4482;54.332;10.118;2023-06-14T07:11:13;24.10;99.90
8892;DHT22;4482;54.332;10.118;2023-06-14T07:13:40;24.20;99.90
8892;DHT22;4482;54.332;10.118;2023-06-14T07:16:07;24.60;99.90
8892;DHT22;4482;54.332;10.118;2023-06-14T07:18:33;25.10;99.90
8892;DHT22;4482;54.332;10.118;2023-06-14T07:21:01;25.60;99.90
8892;DHT22;4482;54.332;10.118;2023-06-14T07:23:30;25.60;99.90
8892;DHT22;4482;54.332;10.118;2023-06-14T07:25:58;25.80;99.90
8892;DHT22;4482;54.332;10.118;2023-06-14T07:28:25;26.00;99.90
8892;DHT22;4482;54.332;10.118;2023-06-14T07:30:51;26.20;99.90
8892;DHT22;4482;54.332;10.118;2023-06-14T07:33:18;26.00;99.90
8892;DHT22;4482;54.332;10.118;2023-06-14T07:35:45;26.20;99.90
8892;DHT22;4482;54.332;10.118;2023-06-14T07:38:13;26.50;99.90
8892;DHT22;4482;54.332;10.118;2023-06-14T07:40:39;26.90;99.90
8892;DHT22;4482;54.332;10.118;2023-06-14T07:43:07;27.10;99.90
8892;DHT22;4482;54.332;10.118;2023-06-14T07:45:44;27.80;99.90
8892;DHT22;4482;54.332;10.118;2023-06-14T07:48:11;28.40;98.30
8892;DHT22;4482;54.332;10.118;2023-06-14T07:50:37;28.80;97.10
8892;DHT22;4482;54.332;10.118;2023-06-14T07:53:04;29.30;95.50
8892;DHT22;4482;54.332;10.118;2023-06-14T07:55:30;29.70;94.60
8892;DHT22;4482;54.332;10.118;2023-06-14T07:57:58;30.10;92.90
8892;DHT22;4482;54.332;10.118;2023-06-14T08:00:26;30.70;91.30
8892;DHT22;4482;54.332;10.118;2023-06-14T08:02:52;31.00;89.50
8892;DHT22;4482;54.332;10.118;2023-06-14T08:05:24;32.00;86.10
8892;DHT22;4482;54.332;10.118;2023-06-14T08:07:51;31.90;82.30
8892;DHT22;4482;54.332;10.118;2023-06-14T08:10:19;32.20;79.20
8892;DHT22;4482;54.332;10.118;2023-06-14T08:12:46;32.40;77.50
8892;DHT22;4482;54.332;10.118;2023-06-14T08:15:13;33.00;75.20
8892;DHT22;4482;54.332;10.118;2023-06-14T08:17:42;32.70;74.70
8892;DHT22;4482;54.332;10.118;2023-06-14T08:20:09;33.00;71.70
8892;DHT22;4482;54.332;10.118;2023-06-14T08:22:36;32.70;73.00
8892;DHT22;4482;54.332;10.118;2023-06-14T08:25:03;33.00;69.80
8892;DHT22;4482;54.332;10.118;2023-06-14T08:27:30;32.30;70.10
8892;DHT22;4482;54.332;10.118;2023-06-14T08:29:56;32.20;69.40
8892;DHT22;4482;54.332;10.118;2023-06-14T08:32:23;32.00;70.50
8892;DHT22;4482;54.332;10.118;2023-06-14T08:34:51;31.80;70.80
8892;DHT22;4482;54.332;10.118;2023-06-14T08:37:18;31.10;73.60
8892;DHT22;4482;54.332;10.118;2023-06-14T08:39:45;31.00;72.80
8892;DHT22;4482;54.332;10.118;2023-06-14T08:42:12;31.20;73.10
8892;DHT22;4482;54.332;10.118;2023-06-14T08:44:40;31.40;72.10
8892;DHT22;4482;54.332;10.118;2023-06-14T08:47:07;31.40;72.90
8892;DHT22;4482;54.332;10.118;2023-06-14T08:49:36;31.40;73.40
8892;DHT22;4482;54.332;10.118;2023-06-14T08:52:07;31.50;73.10
8892;DHT22;4482;54.332;10.118;2023-06-14T08:54:35;31.30;73.70
8892;DHT22;4482;54.332;10.118;2023-06-14T08:57:09;30.70;75.30
8892;DHT22;4482;54.332;10.118;2023-06-14T08:59:37;30.60;76.10
8892;DHT22;4482;54.332;10.118;2023-06-14T09:02:09;30.20;76.30
8892;DHT22;4482;54.332;10.118;2023-06-14T09:04:38;30.30;77.40
8892;DHT22;4482;54.332;10.118;2023-06-14T09:07:06;30.40;78.40
8892;DHT22;4482;54.332;10.118;2023-06-14T09:09:38;30.90;76.20
8892;DHT22;4482;54.332;10.118;2023-06-14T09:12:06;31.20;75.90
8892;DHT22;4482;54.332;10.118;2023-06-14T09:14:35;30.60;75.80
8892;DHT22;4482;54.332;10.118;2023-06-14T09:17:04;30.20;77.30
8892;DHT22;4482;54.332;10.118;2023-06-14T09:19:30;30.50;76.50
8892;DHT22;4482;54.332;10.118;2023-06-14T09:21:57;30.30;75.90
8892;DHT22;4482;54.332;10.118;2023-06-14T09:24:25;30.20;77.20
8892;DHT22;4482;54.332;10.118;2023-06-14T09:26:51;29.30;79.90
8892;DHT22;4482;54.332;10.118;2023-06-14T09:29:18;29.80;79.10
8892;DHT22;4482;54.332;10.118;2023-06-14T09:31:45;29.40;78.00
8892;DHT22;4482;54.332;10.118;2023-06-14T09:34:12;28.60;81.40
8892;DHT22;4482;54.332;10.118;2023-06-14T09:36:39;29.70;79.30
8892;DHT22;4482;54.332;10.118;2023-06-14T09:39:06;30.30;78.00
8892;DHT22;4482;54.332;10.118;2023-06-14T09:41:35;30.90;75.20
8892;DHT22;4482;54.332;10.118;2023-06-14T09:44:02;31.00;73.60
8892;DHT22;4482;54.332;10.118;2023-06-14T09:46:30;30.90;74.20
8892;DHT22;4482;54.332;10.118;2023-06-14T09:48:57;31.70;71.90
8892;DHT22;4482;54.332;10.118;2023-06-14T09:51:24;32.20;69.10
8892;DHT22;4482;54.332;10.118;2023-06-14T09:53:51;31.70;69.70
8892;DHT22;4482;54.332;10.118;2023-06-14T09:56:21;31.50;68.50
8892;DHT22;4482;54.332;10.118;2023-06-14T09:58:50;30.70;70.40
8892;DHT22;4482;54.332;10.118;2023-06-14T10:01:20;30.40;70.90
8892;DHT22;4482;54.332;10.118;2023-06-14T10:03:48;30.60;70.70
8892;DHT22;4482;54.332;10.118;2023-06-14T10:06:16;30.80;69.10
8892;DHT22;4482;54.332;10.118;2023-06-14T10:08:43;31.10;66.10
8892;DHT22;4482;54.332;10.118;2023-06-14T10:11:11;31.50;66.80
8892;DHT22;4482;54.332;10.118;2023-06-14T10:13:39;31.20;66.90
8892;DHT22;4482;54.332;10.118;2023-06-14T10:16:09;31.10;66.80
8892;DHT22;4482;54.332;10.118;2023-06-14T10:18:40;31.50;65.00
8892;DHT22;4482;54.332;10.118;2023-06-14T10:21:12;31.40;65.10
8892;DHT22;4482;54.332;10.118;2023-06-14T10:23:40;31.10;66.00
8892;DHT22;4482;54.332;10.118;2023-06-14T10:26:08;31.30;64.50
8892;DHT22;4482;54.332;10.118;2023-06-14T10:28:37;30.90;63.90
8892;DHT22;4482;54.332;10.118;2023-06-14T10:31:08;31.60;62.40
8892;DHT22;4482;54.332;10.118;2023-06-14T10:33:36;31.90;60.50
8892;DHT22;4482;54.332;10.118;2023-06-14T10:38:49;31.20;60.00
8892;DHT22;4482;54.332;10.118;2023-06-14T10:41:22;31.80;59.70
8892;DHT22;4482;54.332;10.118;2023-06-14T10:43:50;31.90;57.70
8892;DHT22;4482;54.332;10.118;2023-06-14T10:46:18;31.70;57.20
8892;DHT22;4482;54.332;10.118;2023-06-14T10:48:48;31.00;58.00
8892;DHT22;4482;54.332;10.118;2023-06-14T10:51:18;31.00;57.30
8892;DHT22;4482;54.332;10.118;2023-06-14T10:53:46;31.40;58.60
8892;DHT22;4482;54.332;10.118;2023-06-14T10:56:23;31.70;57.90
8892;DHT22;4482;54.332;10.118;2023-06-14T10:58:51;32.20;55.60
8892;DHT22;4482;54.332;10.118;2023-06-14T11:01:20;32.30;54.90
8892;DHT22;4482;54.332;10.118;2023-06-14T11:03:50;32.70;53.80
8892;DHT22;4482;54.332;10.118;2023-06-14T11:06:17;32.40;52.60
8892;DHT22;4482;54.332;10.118;2023-06-14T11:08:54;31.30;53.70
8892;DHT22;4482;54.332;10.118;2023-06-14T11:11:29;31.40;55.10
8892;DHT22;4482;54.332;10.118;2023-06-14T11:13:57;31.80;55.00
8892;DHT22;4482;54.332;10.118;2023-06-14T11:16:27;31.40;55.10
8892;DHT22;4482;54.332;10.118;2023-06-14T11:18:54;31.30;54.50
8892;DHT22;4482;54.332;10.118;2023-06-14T11:21:21;30.90;53.80
8892;DHT22;4482;54.332;10.118;2023-06-14T11:23:50;30.70;54.80
8892;DHT22;4482;54.332;10.118;2023-06-14T11:26:27;30.60;55.80
8892;DHT22;4482;54.332;10.118;2023-06-14T11:28:55;30.80;55.00
8892;DHT22;4482;54.332;10.118;2023-06-14T11:31:22;31.20;54.70
8892;DHT22;4482;54.332;10.118;2023-06-14T11:33:50;31.40;53.40
8892;DHT22;4482;54.332;10.118;2023-06-14T11:36:17;31.00;54.00
8892;DHT22;4482;54.332;10.118;2023-06-14T11:38:44;31.20;54.10
8892;DHT22;4482;54.332;10.118;2023-06-14T11:41:10;31.10;53.40
8892;DHT22;4482;54.332;10.118;2023-06-14T11:43:37;30.60;54.80
8892;DHT22;4482;54.332;10.118;2023-06-14T11:46:03;30.50;54.20
8892;DHT22;4482;54.332;10.118;2023-06-14T11:48:40;30.40;54.90
8892;DHT22;4482;54.332;10.118;2023-06-14T11:51:09;30.40;54.60
8892;DHT22;4482;54.332;10.118;2023-06-14T11:53:36;30.30;54.10
8892;DHT22;4482;54.332;10.118;2023-06-14T11:56:03;29.60;54.60
8892;DHT22;4482;54.332;10.118;2023-06-14T11:58:30;27.80;57.20
8892;DHT22;4482;54.332;10.118;2023-06-14T12:00:57;25.80;62.70
8892;DHT22;4482;54.332;10.118;2023-06-14T12:03:24;24.60;66.50
8892;DHT22;4482;54.332;10.118;2023-06-14T12:06:01;23.70;70.70
8892;DHT22;4482;54.332;10.118;2023-06-14T12:08:33;23.20;75.60
8892;DHT22;4482;54.332;10.118;2023-06-14T12:11:04;22.80;79.20
8892;DHT22;4482;54.332;10.118;2023-06-14T12:13:33;22.60;83.20
8892;DHT22;4482;54.332;10.118;2023-06-14T12:15:59;22.40;83.40
8892;DHT22;4482;54.332;10.118;2023-06-14T12:18:34;22.30;85.50
8892;DHT22;4482;54.332;10.118;2023-06-14T12:21:01;22.20;86.30
8892;DHT22;4482;54.332;10.118;2023-06-14T12:23:39;22.00;88.80
8892;DHT22;4482;54.332;10.118;2023-06-14T12:26:06;22.00;90.70
8892;DHT22;4482;54.332;10.118;2023-06-14T12:28:33;21.80;91.20
8892;DHT22;4482;54.332;10.118;2023-06-14T12:30:59;21.80;91.10
8892;DHT22;4482;54.332;10.118;2023-06-14T12:33:26;21.90;91.40
8892;DHT22;4482;54.332;10.118;2023-06-14T12:35:54;21.90;91.30
8892;DHT22;4482;54.332;10.118;2023-06-14T12:38:21;21.90;91.90
8892;DHT22;4482;54.332;10.118;2023-06-14T12:40:49;22.10;92.10
8892;DHT22;4482;54.332;10.118;2023-06-14T12:43:16;22.10;91.30
8892;DHT22;4482;54.332;10.118;2023-06-14T12:45:46;22.10;91.80
8892;DHT22;4482;54.332;10.118;2023-06-14T12:48:15;22.00;91.60
8892;DHT22;4482;54.332;10.118;2023-06-14T12:50:42;22.00;92.50
8892;DHT22;4482;54.332;10.118;2023-06-14T12:53:09;22.10;91.60
8892;DHT22;4482;54.332;10.118;2023-06-14T12:55:36;22.00;92.10
8892;DHT22;4482;54.332;10.118;2023-06-14T12:58:04;21.90;93.40
8892;DHT22;4482;54.332;10.118;2023-06-14T13:00:30;21.90;92.80
8892;DHT22;4482;54.332;10.118;2023-06-14T13:02:57;21.80;95.20
8892;DHT22;4482;54.332;10.118;2023-06-14T13:05:24;21.90;97.00
8892;DHT22;4482;54.332;10.118;2023-06-14T13:07:51;21.90;97.50
8892;DHT22;4482;54.332;10.118;2023-06-14T13:10:17;21.90;98.10
8892;DHT22;4482;54.332;10.118;2023-06-14T13:12:55;22.00;99.40
8892;DHT22;4482;54.332;10.118;2023-06-14T13:15:24;22.20;98.80
8892;DHT22;4482;54.332;10.118;2023-06-14T13:17:51;22.20;98.00
8892;DHT22;4482;54.332;10.118;2023-06-14T13:20:18;22.10;95.00
8892;DHT22;4482;54.332;10.118;2023-06-14T13:22:44;22.00;96.30
8892;DHT22;4482;54.332;10.118;2023-06-14T13:25:11;22.00;96.60
8892;DHT22;4482;54.332;10.118;2023-06-14T13:27:38;22.00;96.10
8892;DHT22;4482;54.332;10.118;2023-06-14T13:30:05;21.90;96.80
8892;DHT22;4482;54.332;10.118;2023-06-14T13:32:33;21.90;96.80
8892;DHT22;4482;54.332;10.118;2023-06-14T13:34:59;21.80;97.20
8892;DHT22;4482;54.332;10.118;2023-06-14T13:37:26;21.90;96.20
8892;DHT22;4482;54.332;10.118;2023-06-14T13:39:53;21.80;96.00
8892;DHT22;4482;54.332;10.118;2023-06-14T13:42:19;21.80;97.20
8892;DHT22;4482;54.332;10.118;2023-06-14T13:44:46;21.70;96.90
8892;DHT22;4482;54.332;10.118;2023-06-14T13:47:13;21.70;98.00
8892;DHT22;4482;54.332;10.118;2023-06-14T13:49:41;21.70;97.90
8892;DHT22;4482;54.332;10.118;2023-06-14T13:52:07;21.80;97.70
8892;DHT22;4482;54.332;10.118;2023-06-14T13:54:34;21.80;96.80
8892;DHT22;4482;54.332;10.118;2023-06-14T13:57:02;21.70;96.90
8892;DHT22;4482;54.332;10.118;2023-06-14T13:59:28;21.60;97.00
8892;DHT22;4482;54.332;10.118;2023-06-14T14:01:55;21.60;95.70
8892;DHT22;4482;54.332;10.118;2023-06-14T14:04:22;21.60;95.60
8892;DHT22;4482;54.332;10.118;2023-06-14T14:06:50;21.60;95.60
8892;DHT22;4482;54.332;10.118;2023-06-14T14:09:16;21.60;94.90
8892;DHT22;4482;54.332;10.118;2023-06-14T14:11:43;21.50;95.60
8892;DHT22;4482;54.332;10.118;2023-06-14T14:14:10;21.50;95.50
8892;DHT22;4482;54.332;10.118;2023-06-14T14:16:37;21.60;94.90
8892;DHT22;4482;54.332;10.118;2023-06-14T14:19:04;21.50;96.00
8892;DHT22;4482;54.332;10.118;2023-06-14T14:21:31;21.40;96.40
8892;DHT22;4482;54.332;10.118;2023-06-14T14:23:59;21.40;96.00
8892;DHT22;4482;54.332;10.118;2023-06-14T14:26:25;21.40;96.00
8892;DHT22;4482;54.332;10.118;2023-06-14T14:28:52;21.40;96.50
8892;DHT22;4482;54.332;10.118;2023-06-14T14:31:19;21.40;95.90
8892;DHT22;4482;54.332;10.118;2023-06-14T14:33:45;21.30;96.40
8892;DHT22;4482;54.332;10.118;2023-06-14T14:36:12;21.30;95.70
8892;DHT22;4482;54.332;10.118;2023-06-14T14:38:39;21.30;96.10
8892;DHT22;4482;54.332;10.118;2023-06-14T14:41:07;21.30;95.90
8892;DHT22;4482;54.332;10.118;2023-06-14T14:43:33;21.40;96.20
8892;DHT22;4482;54.332;10.118;2023-06-14T14:46:00;21.30;96.20
8892;DHT22;4482;54.332;10.118;2023-06-14T14:48:27;21.30;96.90
8892;DHT22;4482;54.332;10.118;2023-06-14T14:50:53;21.30;97.00
8892;DHT22;4482;54.332;10.118;2023-06-14T14:53:20;21.30;96.00
8892;DHT22;4482;54.332;10.118;2023-06-14T14:55:46;21.20;96.50
8892;DHT22;4482;54.332;10.118;2023-06-14T14:58:14;21.20;96.90
8892;DHT22;4482;54.332;10.118;2023-06-14T15:00:43;21.10;97.00
8892;DHT22;4482;54.332;10.118;2023-06-14T15:03:09;21.20;96.50
8892;DHT22;4482;54.332;10.118;2023-06-14T15:05:36;21.10;96.70
8892;DHT22;4482;54.332;10.118;2023-06-14T15:08:03;21.10;96.90
8892;DHT22;4482;54.332;10.118;2023-06-14T15:10:30;21.10;96.70
8892;DHT22;4482;54.332;10.118;2023-06-14T15:12:57;21.00;96.60
8892;DHT22;4482;54.332;10.118;2023-06-14T15:15:25;21.00;96.40
8892;DHT22;4482;54.332;10.118;2023-06-14T15:17:52;21.00;96.50
8892;DHT22;4482;54.332;10.118;2023-06-14T15:20:18;21.00;96.00
8892;DHT22;4482;54.332;10.118;2023-06-14T15:22:45;21.00;96.60
8892;DHT22;4482;54.332;10.118;2023-06-14T15:25:11;21.00;95.90
8892;DHT22;4482;54.332;10.118;2023-06-14T15:27:38;21.00;96.10
8892;DHT22;4482;54.332;10.118;2023-06-14T15:30:05;21.00;96.10
8892;DHT22;4482;54.332;10.118;2023-06-14T15:32:35;21.00;96.20
8892;DHT22;4482;54.332;10.118;2023-06-14T15:35:02;21.00;96.00
8892;DHT22;4482;54.332;10.118;2023-06-14T15:37:29;21.00;96.70
8892;DHT22;4482;54.332;10.118;2023-06-14T15:39:55;20.90;97.50
8892;DHT22;4482;54.332;10.118;2023-06-14T15:42:22;20.90;97.80
8892;DHT22;4482;54.332;10.118;2023-06-14T15:44:49;20.80;98.10
8892;DHT22;4482;54.332;10.118;2023-06-14T15:47:15;20.70;98.30
8892;DHT22;4482;54.332;10.118;2023-06-14T15:49:44;20.70;98.70